• Join FlightAware (Why Join?)
  • Login
  • US Flag 
03:26PM EDT


 

Airport Tracker/Info


-or-


 

Live Flight TrackerFlight Track Log ✈ XOJ774 ✈ 01-Sep-2013 ✈ KPIL - KTEB

Flight Track Log - Related Links

Times and Time Zones

All times are in EDT time to prevent confusion due to time zone crossing. See the XOJ774 flight status page for this flight to view local times or setup timezone preferences in your user account.

Time Position Orientation Groundspeed Altitude Reporting Facility
EDT Latitude Longitude Course Direction KTS MPH feet Rate Location/Type
11:46AM 26.1575 -97.3336 26° Northeast 154 177 300  Level Houston Center
11:47AM 26.2131 -97.3028 26° Northeast 219 252 2,000 1,380 Climbing Houston Center
11:48AM 26.2719 -97.2831 17° North 239 275 3,600 2,460 Climbing Houston Center
11:50AM 26.3547 -97.2472 21° North 241 277 7,700 2,820 Climbing Houston Center
11:51AM 26.4314 -97.2175 19° North 287 330 10,300 2,220 Climbing Houston Center
11:52AM 26.5219 -97.1842 18° North 316 364 12,300 1,800 Climbing Houston Center
11:53AM 26.6131 -97.1472 20° North 341 392 14,000 1,740 Climbing Houston Center
11:54AM 26.7186 -97.1083 18° North 367 422 15,900 1,500 Climbing Houston Center
11:55AM 26.7992 -97.0778 19° North 373 429 17,100 1,320 Climbing Houston Center
11:56AM 26.9203 -97.0311 19° North 376 433 18,700 1,440 Climbing Houston Center
11:57AM 27.0208 -96.9914 19° North 381 438 20,100 1,200 Climbing Houston Center
11:58AM 27.1247 -96.9511 19° North 385 443 21,300 1,140 Climbing Houston Center
11:59AM 27.2303 -96.8847 29° Northeast 419 482 22,500 1,140 Climbing Houston Center
12:00PM 27.3100 -96.7911 46° Northeast 416 479 23,700 1,020 Climbing Houston Center
12:01PM 27.3833 -96.6867 52° Northeast 419 482 24,700 1,020 Climbing Houston Center
12:02PM 27.4731 -96.5550 52° Northeast 429 494 25,900 1,020 Climbing Houston Center
12:03PM 27.5494 -96.4433 52° Northeast 437 503 26,900 960 Climbing Houston Center
12:04PM 27.6261 -96.3303 53° Northeast 445 512 27,900 900 Climbing Houston Center
12:05PM 27.7031 -96.2175 52° Northeast 449 517 28,800 840 Climbing Houston Center
12:06PM 27.7811 -96.1047 52° Northeast 453 521 29,700 840 Climbing Houston Center
12:07PM 27.8628 -95.9911 51° Northeast 463 533 30,600 960 Climbing Houston Center
12:08PM 27.9594 -95.8528 52° Northeast 468 539 31,700 780 Climbing Houston Center
12:09PM 28.0414 -95.7372 51° Northeast 471 542 32,300 540 Climbing Houston Center
12:10PM 28.1236 -95.6225 51° Northeast 477 549 32,900 480 Climbing Houston Center
12:11PM 28.2064 -95.5025 52° Northeast 484 557 33,400 480 Climbing Houston Center
12:12PM 28.2906 -95.3819 52° Northeast 488 562 34,000 480 Climbing Houston Center
12:13PM 28.3753 -95.2628 51° Northeast 488 562 34,500 540 Climbing Houston Center
12:14PM 28.4761 -95.1167 52° Northeast 491 565 35,200 540 Climbing Houston Center
12:15PM 28.5611 -94.9953 51° Northeast 492 566 35,700 480 Climbing Houston Center
12:16PM 28.6442 -94.8733 52° Northeast 491 565 36,300 540 Climbing Houston Center
12:17PM 28.7286 -94.7531 51° Northeast 490 564 36,900 540 Climbing Houston Center
12:19PM 28.8131 -94.6300 52° Northeast 494 568 37,500 540 Climbing Houston Center
12:20PM 28.8969 -94.5061 52° Northeast 495 570 38,100 600 Climbing Houston Center
12:21PM 28.9972 -94.3606 52° Northeast 491 565 38,800 600 Climbing Houston Center
12:22PM 29.0806 -94.2378 52° Northeast 490 564 39,400 480 Climbing Houston Center
12:23PM 29.1647 -94.1144 52° Northeast 493 567 39,800 420 Climbing Houston Center
12:24PM 29.2486 -93.9903 52° Northeast 495 570 40,300 480 Climbing Houston Center
12:25PM 29.3322 -93.8667 52° Northeast 494 568 40,800 300 Climbing Houston Center
12:26PM 29.4150 -93.7464 52° Northeast 488 562 41,000 60 Climbing Houston Center
12:27PM 29.5153 -93.5964 52° Northeast 491 565 41,000  Level Houston Center
12:28PM 29.5989 -93.4714 52° Northeast 495 570 41,000  Level Houston Center
12:29PM 29.6833 -93.3453 52° Northeast 498 573 41,000  Level Houston Center
12:30PM 29.7661 -93.2189 53° Northeast 499 574 41,000  Level Houston Center
12:31PM 29.8492 -93.0939 53° Northeast 497 572 41,000  Level Houston Center
12:32PM 29.9489 -92.9422 53° Northeast 498 573 41,000  Level Houston Center
12:33PM 30.0314 -92.8194 52° Northeast 492 566 41,000  Level Houston Center
12:34PM 30.1136 -92.6933 53° Northeast 493 567 41,000  Level Houston Center
12:35PM 30.1958 -92.5664 53° Northeast 496 571 41,000  Level Houston Center
12:36PM 30.2789 -92.4400 53° Northeast 497 572 41,000  Level Houston Center
12:37PM 30.3719 -92.2975 53° Northeast 500 575 41,000  Level Houston Center
12:38PM 30.4539 -92.1697 53° Northeast 498 573 41,000  Level Houston Center
12:39PM 30.5372 -92.0433 53° Northeast 497 572 41,000  Level Houston Center
12:40PM 30.6214 -91.9144 53° Northeast 501 577 41,000  Level Houston Center
12:41PM 30.7214 -91.7583 53° Northeast 504 580 41,000  Level Houston Center
12:42PM 30.8042 -91.6286 53° Northeast 504 580 41,000  Level Houston Center
12:43PM 30.8894 -91.4983 53° Northeast 507 583 41,000  Level Houston Center
12:44PM 30.9728 -91.3669 53° Northeast 506 582 41,000  Level Houston Center
12:45PM 31.0644 -91.2222 53° Northeast 505 581 41,000  Level Houston Center
12:46PM 31.1478 -91.0906 53° Northeast 503 579 41,000 60 Level Houston Center
12:47PM 31.2306 -90.9581 54° Northeast 504 580 41,200 240 Climbing Houston Center
12:48PM 31.3133 -90.8261 54° Northeast 503 579 41,500 300 Climbing Houston Center
12:49PM 31.3939 -90.6975 54° Northeast 494 568 41,900 300 Climbing Houston Center
12:50PM 31.4744 -90.5675 54° Northeast 491 565 42,200 300 Climbing Houston Center
12:51PM 31.5550 -90.4397 53° Northeast 489 563 42,600 360 Climbing Houston Center
12:52PM 31.6344 -90.3108 54° Northeast 488 562 43,000 180 Climbing Houston Center
12:53PM 31.7147 -90.1803 54° Northeast 490 564 43,000  Level Houston Center
12:55PM 31.8128 -90.0222 54° Northeast 496 571 43,000  Level Houston Center
12:56PM 31.8986 -89.8828 54° Northeast 500 575 43,000  Level Memphis Center
12:57PM 31.9794 -89.7475 55° Northeast 500 575 43,000  Level Memphis Center
12:58PM 32.0581 -89.6194 54° Northeast 495 570 43,000  Level Memphis Center
12:59PM 32.1386 -89.4864 54° Northeast 495 570 43,000  Level Memphis Center
01:00PM 32.2169 -89.3531 55° Northeast 495 570 43,000  Level Memphis Center
01:01PM 32.2911 -89.2342 54° Northeast 500 575 43,000  Level Memphis Center
01:02PM 32.3711 -89.1006 55° Northeast 500 575 43,000  Level Memphis Center
01:03PM 32.4511 -88.9664 55° Northeast 495 570 43,000  Level Memphis Center
01:04PM 32.5311 -88.8344 54° Northeast 495 570 43,000  Level Memphis Center
01:05PM 32.6108 -88.6975 55° Northeast 500 575 43,000  Level Memphis Center
01:06PM 32.6903 -88.5653 54° Northeast 500 575 43,000  Level Memphis Center
01:08PM 32.8617 -88.2700 55° Northeast 476 548 43,000  Level Atlanta Center
01:09PM 32.9392 -88.1350 56° Northeast 481 554 43,000  Level Atlanta Center
01:10PM 33.0189 -87.9975 55° Northeast 487 560 43,000  Level Atlanta Center
01:11PM 33.0983 -87.8622 55° Northeast 487 560 43,000  Level Atlanta Center
01:12PM 33.1878 -87.7397 49° Northeast 493 567 43,000  Level Atlanta Center
01:13PM 33.2831 -87.6194 47° Northeast 493 567 43,000  Level Atlanta Center
01:14PM 33.3742 -87.4939 49° Northeast 493 567 43,000  Level Atlanta Center
01:15PM 33.4653 -87.3706 48° Northeast 498 573 43,000  Level Atlanta Center
01:16PM 33.5564 -87.2419 50° Northeast 498 573 43,000  Level Atlanta Center
01:17PM 33.6367 -87.1253 50° Northeast 498 573 43,000  Level Atlanta Center
01:18PM 33.7275 -86.9986 49° Northeast 493 567 43,000  Level Atlanta Center
01:19PM 33.8181 -86.8692 50° Northeast 493 567 43,000  Level Atlanta Center
01:20PM 33.9047 -86.7319 53° Northeast 498 573 43,000  Level Atlanta Center
01:21PM 33.9808 -86.5914 57° Northeast 503 579 43,000  Level Atlanta Center
01:22PM 34.0689 -86.4586 51° Northeast 503 579 43,000  Level Atlanta Center
01:23PM 34.1633 -86.3308 48° Northeast 503 579 43,000  Level Atlanta Center
01:24PM 34.2533 -86.1975 51° Northeast 508 585 43,000  Level Atlanta Center
01:25PM 34.3411 -86.0614 52° Northeast 508 585 43,000  Level Atlanta Center
01:26PM 34.4247 -85.9250 53° Northeast 508 585 43,000  Level Atlanta Center
01:27PM 34.5186 -85.7783 52° Northeast 508 585 43,000  Level Atlanta Center
01:28PM 34.6042 -85.6389 53° Northeast 508 585 43,000  Level Atlanta Center
01:29PM 34.6933 -85.5039 51° Northeast 508 585 43,000  Level Atlanta Center
01:30PM 34.7867 -85.3767 48° Northeast 508 585 43,000  Level Atlanta Center
01:31PM 34.8842 -85.2467 48° Northeast 508 585 43,000  Level Atlanta Center
01:32PM 34.9792 -85.1186 48° Northeast 508 585 43,000  Level Atlanta Center
01:33PM 35.0761 -84.9906 47° Northeast 508 585 43,000  Level Atlanta Center
01:34PM 35.1711 -84.8619 48° Northeast 508 585 43,000  Level Atlanta Center
01:35PM 35.2678 -84.7306 48° Northeast 508 585 43,000  Level Atlanta Center
01:36PM 35.3603 -84.6017 49° Northeast 508 585 43,000  Level Atlanta Center
01:37PM 35.4547 -84.4722 48° Northeast 508 585 43,000  Level Atlanta Center
01:38PM 35.5489 -84.3400 49° Northeast 508 585 43,000  Level Atlanta Center
01:39PM 35.6450 -84.2125 47° Northeast 503 579 43,000  Level Atlanta Center
01:40PM 35.7392 -84.0822 48° Northeast 503 579 43,000  Level Atlanta Center
01:41PM 35.8350 -83.9464 49° Northeast 509 586 43,000  Level Atlanta Center
01:42PM 35.9308 -83.8131 48° Northeast 509 586 43,000  Level Atlanta Center
01:43PM 36.0244 -83.6844 48° Northeast 509 586 43,000  Level Atlanta Center
01:44PM 36.1200 -83.5503 49° Northeast 509 586 43,000  Level Atlanta Center
01:45PM 36.2131 -83.4186 49° Northeast 504 580 43,000  Level Atlanta Center
01:46PM 36.3061 -83.2839 49° Northeast 510 587 43,000  Level Atlanta Center
01:47PM 36.3992 -83.1489 49° Northeast 510 587 43,000  Level Atlanta Center
01:48PM 36.4942 -83.0161 48° Northeast 510 587 43,000  Level Atlanta Center
01:50PM 36.7061 -82.7069 49° Northeast 518 596 43,000  Level Indianapolis Center
01:51PM 36.8000 -82.5722 49° Northeast 519 597 43,000  Level Indianapolis Center
01:52PM 36.9114 -82.4150 48° Northeast 522 601 43,000  Level Indianapolis Center
01:53PM 37.0064 -82.2792 49° Northeast 522 601 43,000  Level Indianapolis Center
01:54PM 37.0986 -82.1422 50° Northeast 516 594 43,000 120 Level Indianapolis Center
01:55PM 37.1911 -82.0067 49° Northeast 514 592 43,300 300 Climbing Indianapolis Center
01:56PM 37.2831 -81.8717 49° Northeast 509 586 43,700 360 Climbing Indianapolis Center
01:57PM 37.3733 -81.7381 50° Northeast 504 580 44,100 420 Climbing Indianapolis Center
01:58PM 37.4611 -81.6036 51° Northeast 498 573 44,600 360 Climbing Indianapolis Center
01:59PM 37.5647 -81.4514 49° Northeast 502 578 44,900 180 Climbing Indianapolis Center
02:00PM 37.6522 -81.3194 50° Northeast 504 580 45,000  Climbing Indianapolis Center
02:01PM 37.7336 -81.1786 54° Northeast 508 585 45,000  Level Indianapolis Center
02:02PM 37.7842 -81.0156 69° East 512 589 45,000  Level Indianapolis Center
02:03PM 37.7992 -80.8411 84° East 515 593 45,000  Level Indianapolis Center
02:04PM 37.8117 -80.6364 86° East 515 593 45,000  Level Indianapolis Center
02:05PM 37.8181 -80.5578 84° East 501 577 45,000  Level Washington Center
02:06PM 37.8306 -80.3533 86° East 506 582 45,000  Level Washington Center
02:07PM 37.8417 -80.1753 85° East 511 588 45,000  Level Washington Center
02:08PM 37.8547 -79.9972 85° East 517 595 45,000  Level Washington Center
02:09PM 37.8656 -79.8111 86° East 517 595 45,000  Level Washington Center
02:10PM 37.8761 -79.6275 86° East 517 595 45,000  Level Washington Center
02:11PM 37.9086 -79.4633 76° East 517 595 45,000  Level Washington Center
02:12PM 37.9658 -79.2953 67° East 512 589 45,000  Level Washington Center
02:13PM 38.0231 -79.1319 66° East 512 589 45,000  Level Washington Center
02:14PM 38.0861 -78.9661 64° Northeast 512 589 45,000  Level Washington Center
02:15PM 38.1436 -78.7758 69° East 518 596 45,000  Level Washington Center
02:16PM 38.1919 -78.6008 71° East 518 596 45,000  Level Washington Center
02:17PM 38.2356 -78.4281 72° East 513 590 45,000  Level Washington Center
02:18PM 38.2856 -78.2556 70° East 513 590 45,000  Level Washington Center
02:19PM 38.3353 -78.0800 70° East 519 597 45,000  Level Washington Center
02:20PM 38.3822 -77.9147 70° East 514 592 45,000 -300 Level Washington Center
02:21PM 38.4247 -77.7569 71° East 487 560 44,400 -720 Descending Washington Center
02:22PM 38.4692 -77.6044 70° East 464 534 43,600 -900 Descending Washington Center
02:23PM 38.5133 -77.4464 70° East 459 528 42,700 -960 Descending Washington Center
02:24PM 38.5553 -77.2856 72° East 459 528 41,800 -900 Descending Washington Center
02:25PM 38.6011 -77.1378 68° East 459 528 41,000 -720 Descending Washington Center
02:26PM 38.6758 -77.0011 55° Northeast 450 518 40,400 -960 Descending Washington Center
02:27PM 38.7731 -76.8803 44° Northeast 474 545 39,100 -1,800 Descending Washington Center
02:28PM 38.8658 -76.7700 43° Northeast 458 527 36,900 -2,520 Descending Washington Center
02:29PM 38.9375 -76.6806 44° Northeast 446 513 34,100 -3,660 Descending Washington Center
02:30PM 39.0533 -76.5378 44° Northeast 452 520 29,600 -4,140 Descending Washington Center
02:31PM 39.1522 -76.4161 44° Northeast 473 544 25,900 -2,820 Descending Washington Center
02:32PM 39.2531 -76.2883 44° Northeast 487 560 24,000 -960 Descending Washington Center
02:33PM 39.3497 -76.1658 44° Northeast 487 560 24,000 -1,140 Level Washington Center
02:34PM 39.5167 -75.9500 45° Northeast 490 564 21,100 -2,220 Descending Philadelphia TRACON
02:35PM 39.6000 -75.8500 43° Northeast 459 528 18,200 -2,880 Descending Philadelphia TRACON
02:36PM 39.7000 -75.7167 46° Northeast 433 498 15,400 -2,580 Descending Philadelphia TRACON
02:37PM 39.7833 -75.6167 43° Northeast 412 474 13,100 -1,200 Descending Philadelphia TRACON
02:38PM 39.8667 -75.5333 37° Northeast 401 461 13,000 -60 Descending Philadelphia TRACON
02:39PM 39.9667 -75.4500 33° Northeast 420 483 13,000  Level Philadelphia TRACON
02:40PM 40.0500 -75.3667 37° Northeast 424 488 13,000  Level Philadelphia TRACON
02:42PM 40.1500 -75.2667 37° Northeast 419 482 13,000 -1,260 Level Philadelphia TRACON
02:44PM 40.3333 -75.1000 35° Northeast 323 372 8,900 -1,800 Descending New York TRACON
02:45PM 40.3833 -75.0167 52° Northeast 303 349 7,100 -1,560 Descending New York TRACON
02:46PM 40.4333 -74.9500 45° Northeast 277 319 5,800 -1,440 Descending New York TRACON
02:47PM 40.5000 -74.8667 44° Northeast 289 333 4,300 -960 Descending New York TRACON
02:48PM 40.5500 -74.8000 45° Northeast 285 328 4,000 -180 Descending New York TRACON
02:49PM 40.6000 -74.7167 52° Northeast 290 334 4,000  Level New York TRACON
02:50PM 40.6833 -74.6667 24° Northeast 288 331 4,000 -120 Level New York TRACON
02:51PM 40.7500 -74.6167 30° Northeast 294 338 3,800 -480 Descending New York TRACON
02:52PM 40.8167 -74.5500 37° Northeast 298 343 3,100 -420 Descending New York TRACON
02:53PM 40.8833 -74.4833 37° Northeast 294 338 3,000 -60 Descending New York TRACON
02:54PM 40.9167 -74.4000 62° Northeast 293 337 3,000  Level New York TRACON
02:55PM 40.9500 -74.3167 62° Northeast 290 334 3,000 -60 Level New York TRACON
02:56PM 40.9833 -74.2167 66° East 288 331 2,900 -480 Descending New York TRACON
02:57PM 41.0167 -74.1333 62° Northeast 248 285 2,100 -480 Descending New York TRACON
02:58PM 41.0000 -74.0667 108° East 232 267 2,000 -240 Descending New York TRACON
02:59PM 40.9500 -74.0500 166° South 199 229 1,700 -600 Descending New York TRACON
03:00PM 40.9000 -74.0500 180° South 172 198 800 -900 Descending New York TRACON
03:02PM 40.8500 -74.0500 180° South  Level FlightAware Approximate